sensor_id;sensor_type;location;lat;lon;timestamp;P1;durP1;ratioP1;P2;durP2;ratioP2
31716;SDS011;18301;51.076;17.046;2023-07-13T00:00:43;10.15;;;4.97;;
31716;SDS011;18301;51.076;17.046;2023-07-13T00:05:44;12.90;;;6.07;;
31716;SDS011;18301;51.076;17.046;2023-07-13T00:10:46;9.13;;;5.88;;
31716;SDS011;18301;51.076;17.046;2023-07-13T00:15:47;8.70;;;5.90;;
31716;SDS011;18301;51.076;17.046;2023-07-13T00:20:49;7.10;;;5.57;;
31716;SDS011;18301;51.076;17.046;2023-07-13T00:25:51;7.13;;;5.60;;
31716;SDS011;18301;51.076;17.046;2023-07-13T00:30:52;8.55;;;5.43;;
31716;SDS011;18301;51.076;17.046;2023-07-13T00:35:55;9.82;;;5.50;;
31716;SDS011;18301;51.076;17.046;2023-07-13T00:40:57;7.72;;;4.85;;
31716;SDS011;18301;51.076;17.046;2023-07-13T00:46:10;9.85;;;5.82;;
31716;SDS011;18301;51.076;17.046;2023-07-13T00:51:19;8.98;;;5.60;;
31716;SDS011;18301;51.076;17.046;2023-07-13T00:56:25;11.15;;;5.78;;
31716;SDS011;18301;51.076;17.046;2023-07-13T01:01:27;11.43;;;5.97;;
31716;SDS011;18301;51.076;17.046;2023-07-13T01:06:29;13.15;;;5.93;;
31716;SDS011;18301;51.076;17.046;2023-07-13T01:11:31;9.05;;;5.60;;
31716;SDS011;18301;51.076;17.046;2023-07-13T01:16:34;9.93;;;5.75;;
31716;SDS011;18301;51.076;17.046;2023-07-13T01:21:37;11.43;;;6.53;;
31716;SDS011;18301;51.076;17.046;2023-07-13T01:26:44;10.23;;;6.28;;
31716;SDS011;18301;51.076;17.046;2023-07-13T01:31:45;11.35;;;6.63;;
31716;SDS011;18301;51.076;17.046;2023-07-13T01:36:47;10.45;;;6.13;;
31716;SDS011;18301;51.076;17.046;2023-07-13T01:41:48;10.00;;;6.20;;
31716;SDS011;18301;51.076;17.046;2023-07-13T01:46:50;13.05;;;6.53;;
31716;SDS011;18301;51.076;17.046;2023-07-13T01:51:51;11.10;;;7.00;;
31716;SDS011;18301;51.076;17.046;2023-07-13T01:56:53;12.38;;;7.00;;
31716;SDS011;18301;51.076;17.046;2023-07-13T02:01:54;12.48;;;7.28;;
31716;SDS011;18301;51.076;17.046;2023-07-13T02:06:56;12.23;;;7.13;;
31716;SDS011;18301;51.076;17.046;2023-07-13T02:11:58;10.10;;;6.60;;
31716;SDS011;18301;51.076;17.046;2023-07-13T02:16:59;12.25;;;7.50;;
31716;SDS011;18301;51.076;17.046;2023-07-13T02:22:01;10.48;;;6.72;;
31716;SDS011;18301;51.076;17.046;2023-07-13T02:27:02;9.00;;;6.32;;
31716;SDS011;18301;51.076;17.046;2023-07-13T02:32:04;10.88;;;5.90;;
31716;SDS011;18301;51.076;17.046;2023-07-13T02:37:06;8.43;;;5.28;;
31716;SDS011;18301;51.076;17.046;2023-07-13T02:42:08;8.07;;;5.00;;
31716;SDS011;18301;51.076;17.046;2023-07-13T02:47:10;8.45;;;4.70;;
31716;SDS011;18301;51.076;17.046;2023-07-13T02:52:11;8.98;;;5.07;;
31716;SDS011;18301;51.076;17.046;2023-07-13T02:57:13;10.48;;;5.07;;
31716;SDS011;18301;51.076;17.046;2023-07-13T03:02:14;8.98;;;4.80;;
31716;SDS011;18301;51.076;17.046;2023-07-13T03:07:16;7.43;;;4.80;;
31716;SDS011;18301;51.076;17.046;2023-07-13T03:12:18;6.53;;;4.50;;
31716;SDS011;18301;51.076;17.046;2023-07-13T03:17:19;7.18;;;4.88;;
31716;SDS011;18301;51.076;17.046;2023-07-13T03:22:21;5.10;;;4.38;;
31716;SDS011;18301;51.076;17.046;2023-07-13T03:27:23;9.85;;;4.10;;
31716;SDS011;18301;51.076;17.046;2023-07-13T03:32:24;6.65;;;4.22;;
31716;SDS011;18301;51.076;17.046;2023-07-13T03:37:26;5.40;;;4.15;;
31716;SDS011;18301;51.076;17.046;2023-07-13T03:42:27;8.70;;;4.80;;
31716;SDS011;18301;51.076;17.046;2023-07-13T03:47:29;8.30;;;4.38;;
31716;SDS011;18301;51.076;17.046;2023-07-13T03:52:30;10.52;;;4.60;;
31716;SDS011;18301;51.076;17.046;2023-07-13T03:57:32;8.95;;;4.43;;
31716;SDS011;18301;51.076;17.046;2023-07-13T04:02:33;6.10;;;4.68;;
31716;SDS011;18301;51.076;17.046;2023-07-13T04:07:35;5.80;;;4.07;;
31716;SDS011;18301;51.076;17.046;2023-07-13T04:12:36;6.78;;;4.00;;
31716;SDS011;18301;51.076;17.046;2023-07-13T04:17:38;5.45;;;3.85;;
31716;SDS011;18301;51.076;17.046;2023-07-13T04:22:39;6.38;;;3.90;;
31716;SDS011;18301;51.076;17.046;2023-07-13T04:27:41;7.60;;;4.57;;
31716;SDS011;18301;51.076;17.046;2023-07-13T04:32:42;8.43;;;5.53;;
31716;SDS011;18301;51.076;17.046;2023-07-13T04:37:44;5.63;;;4.22;;
31716;SDS011;18301;51.076;17.046;2023-07-13T04:42:45;7.13;;;3.80;;
31716;SDS011;18301;51.076;17.046;2023-07-13T04:47:47;9.82;;;3.67;;
31716;SDS011;18301;51.076;17.046;2023-07-13T04:52:49;7.65;;;3.60;;
31716;SDS011;18301;51.076;17.046;2023-07-13T04:57:52;6.68;;;3.60;;
31716;SDS011;18301;51.076;17.046;2023-07-13T05:02:56;6.80;;;3.70;;
31716;SDS011;18301;51.076;17.046;2023-07-13T05:07:59;5.15;;;3.50;;
31716;SDS011;18301;51.076;17.046;2023-07-13T05:13:01;7.65;;;3.22;;
31716;SDS011;18301;51.076;17.046;2023-07-13T05:18:03;3.58;;;2.42;;
31716;SDS011;18301;51.076;17.046;2023-07-13T05:23:04;5.22;;;2.78;;
31716;SDS011;18301;51.076;17.046;2023-07-13T05:28:06;4.10;;;2.78;;
31716;SDS011;18301;51.076;17.046;2023-07-13T05:33:07;3.40;;;2.90;;
31716;SDS011;18301;51.076;17.046;2023-07-13T05:38:09;5.40;;;3.08;;
31716;SDS011;18301;51.076;17.046;2023-07-13T05:43:11;3.17;;;2.63;;
31716;SDS011;18301;51.076;17.046;2023-07-13T05:48:13;3.28;;;2.50;;
31716;SDS011;18301;51.076;17.046;2023-07-13T05:53:14;3.10;;;2.30;;
31716;SDS011;18301;51.076;17.046;2023-07-13T05:58:16;5.10;;;2.70;;
31716;SDS011;18301;51.076;17.046;2023-07-13T06:03:18;4.18;;;2.80;;
31716;SDS011;18301;51.076;17.046;2023-07-13T06:08:20;3.05;;;2.30;;
31716;SDS011;18301;51.076;17.046;2023-07-13T06:13:22;3.25;;;2.72;;
31716;SDS011;18301;51.076;17.046;2023-07-13T06:18:23;3.45;;;2.55;;
31716;SDS011;18301;51.076;17.046;2023-07-13T06:23:25;3.63;;;2.50;;
31716;SDS011;18301;51.076;17.046;2023-07-13T06:28:26;4.13;;;2.83;;
31716;SDS011;18301;51.076;17.046;2023-07-13T06:33:29;4.07;;;2.75;;
31716;SDS011;18301;51.076;17.046;2023-07-13T06:38:31;3.60;;;2.55;;
31716;SDS011;18301;51.076;17.046;2023-07-13T06:43:33;5.15;;;3.00;;
31716;SDS011;18301;51.076;17.046;2023-07-13T06:48:35;4.05;;;2.30;;
31716;SDS011;18301;51.076;17.046;2023-07-13T06:53:37;4.82;;;2.90;;
31716;SDS011;18301;51.076;17.046;2023-07-13T06:58:38;4.88;;;3.08;;
31716;SDS011;18301;51.076;17.046;2023-07-13T07:03:40;6.32;;;3.38;;
31716;SDS011;18301;51.076;17.046;2023-07-13T07:08:42;3.63;;;3.20;;
31716;SDS011;18301;51.076;17.046;2023-07-13T07:13:43;5.63;;;4.10;;
31716;SDS011;18301;51.076;17.046;2023-07-13T07:18:45;5.15;;;3.47;;
31716;SDS011;18301;51.076;17.046;2023-07-13T07:23:47;5.93;;;3.83;;
31716;SDS011;18301;51.076;17.046;2023-07-13T07:28:48;6.22;;;3.85;;
31716;SDS011;18301;51.076;17.046;2023-07-13T07:34:10;7.97;;;3.83;;
31716;SDS011;18301;51.076;17.046;2023-07-13T07:39:11;6.18;;;3.92;;
31716;SDS011;18301;51.076;17.046;2023-07-13T07:44:13;11.23;;;7.75;;
31716;SDS011;18301;51.076;17.046;2023-07-13T07:49:15;24.98;;;14.15;;
31716;SDS011;18301;51.076;17.046;2023-07-13T07:54:16;6.22;;;4.50;;
31716;SDS011;18301;51.076;17.046;2023-07-13T07:59:38;6.88;;;3.80;;
31716;SDS011;18301;51.076;17.046;2023-07-13T08:04:43;5.93;;;4.30;;
31716;SDS011;18301;51.076;17.046;2023-07-13T08:09:47;5.93;;;3.90;;
31716;SDS011;18301;51.076;17.046;2023-07-13T08:14:53;5.32;;;3.67;;
31716;SDS011;18301;51.076;17.046;2023-07-13T08:19:55;7.55;;;4.30;;
31716;SDS011;18301;51.076;17.046;2023-07-13T08:24:56;8.32;;;4.20;;
31716;SDS011;18301;51.076;17.046;2023-07-13T08:29:58;6.38;;;3.47;;
31716;SDS011;18301;51.076;17.046;2023-07-13T08:34:59;6.88;;;4.32;;
31716;SDS011;18301;51.076;17.046;2023-07-13T08:40:01;6.88;;;5.32;;
31716;SDS011;18301;51.076;17.046;2023-07-13T08:50:43;4.57;;;4.10;;
31716;SDS011;18301;51.076;17.046;2023-07-13T08:56:02;6.65;;;4.72;;
31716;SDS011;18301;51.076;17.046;2023-07-13T09:01:12;5.45;;;4.03;;
31716;SDS011;18301;51.076;17.046;2023-07-13T09:06:23;5.78;;;4.32;;
31716;SDS011;18301;51.076;17.046;2023-07-13T09:11:40;4.72;;;3.85;;
31716;SDS011;18301;51.076;17.046;2023-07-13T09:16:48;4.95;;;4.00;;
31716;SDS011;18301;51.076;17.046;2023-07-13T09:21:51;6.50;;;3.92;;
31716;SDS011;18301;51.076;17.046;2023-07-13T09:26:56;5.22;;;4.07;;
31716;SDS011;18301;51.076;17.046;2023-07-13T09:32:00;4.72;;;3.90;;
31716;SDS011;18301;51.076;17.046;2023-07-13T09:37:05;5.80;;;4.05;;
31716;SDS011;18301;51.076;17.046;2023-07-13T09:47:18;6.88;;;3.40;;
31716;SDS011;18301;51.076;17.046;2023-07-13T09:57:28;6.60;;;3.80;;
31716;SDS011;18301;51.076;17.046;2023-07-13T10:03:03;5.70;;;3.78;;
31716;SDS011;18301;51.076;17.046;2023-07-13T10:08:29;4.20;;;3.53;;
31716;SDS011;18301;51.076;17.046;2023-07-13T10:13:36;4.68;;;3.30;;
31716;SDS011;18301;51.076;17.046;2023-07-13T10:18:46;4.90;;;3.03;;
31716;SDS011;18301;51.076;17.046;2023-07-13T10:23:54;4.55;;;3.03;;
31716;SDS011;18301;51.076;17.046;2023-07-13T10:29:05;5.43;;;2.40;;
31716;SDS011;18301;51.076;17.046;2023-07-13T10:34:12;3.45;;;2.58;;
31716;SDS011;18301;51.076;17.046;2023-07-13T10:39:16;3.20;;;2.35;;
31716;SDS011;18301;51.076;17.046;2023-07-13T10:44:24;2.63;;;2.42;;
31716;SDS011;18301;51.076;17.046;2023-07-13T10:49:30;4.72;;;2.67;;
31716;SDS011;18301;51.076;17.046;2023-07-13T10:54:33;2.72;;;1.98;;
31716;SDS011;18301;51.076;17.046;2023-07-13T10:59:36;4.07;;;2.05;;
31716;SDS011;18301;51.076;17.046;2023-07-13T11:04:47;2.22;;;1.95;;
31716;SDS011;18301;51.076;17.046;2023-07-13T11:10:02;2.55;;;2.20;;
31716;SDS011;18301;51.076;17.046;2023-07-13T11:15:10;3.67;;;2.22;;
31716;SDS011;18301;51.076;17.046;2023-07-13T11:35:29;4.05;;;2.20;;
31716;SDS011;18301;51.076;17.046;2023-07-13T11:40:32;4.03;;;2.22;;
31716;SDS011;18301;51.076;17.046;2023-07-13T11:45:34;4.90;;;2.45;;
31716;SDS011;18301;51.076;17.046;2023-07-13T11:50:59;2.53;;;2.10;;
31716;SDS011;18301;51.076;17.046;2023-07-13T11:56:04;3.28;;;2.38;;
31716;SDS011;18301;51.076;17.046;2023-07-13T12:01:10;4.93;;;2.40;;
31716;SDS011;18301;51.076;17.046;2023-07-13T12:06:27;6.10;;;2.20;;
31716;SDS011;18301;51.076;17.046;2023-07-13T12:11:34;3.85;;;2.22;;
31716;SDS011;18301;51.076;17.046;2023-07-13T12:16:42;3.20;;;1.90;;
31716;SDS011;18301;51.076;17.046;2023-07-13T12:21:44;3.95;;;2.20;;
31716;SDS011;18301;51.076;17.046;2023-07-13T12:26:54;5.72;;;2.00;;
31716;SDS011;18301;51.076;17.046;2023-07-13T12:32:03;2.20;;;2.10;;
31716;SDS011;18301;51.076;17.046;2023-07-13T12:37:11;5.63;;;2.45;;
31716;SDS011;18301;51.076;17.046;2023-07-13T12:47:29;5.68;;;1.90;;
31716;SDS011;18301;51.076;17.046;2023-07-13T12:52:33;3.15;;;1.90;;
31716;SDS011;18301;51.076;17.046;2023-07-13T12:57:40;4.68;;;1.75;;
31716;SDS011;18301;51.076;17.046;2023-07-13T13:02:45;2.03;;;1.73;;
31716;SDS011;18301;51.076;17.046;2023-07-13T13:07:51;3.67;;;1.98;;
31716;SDS011;18301;51.076;17.046;2023-07-13T13:12:53;3.83;;;1.95;;
31716;SDS011;18301;51.076;17.046;2023-07-13T13:17:55;5.07;;;2.00;;
31716;SDS011;18301;51.076;17.046;2023-07-13T13:22:57;4.68;;;2.40;;
31716;SDS011;18301;51.076;17.046;2023-07-13T13:27:59;5.88;;;2.13;;
31716;SDS011;18301;51.076;17.046;2023-07-13T13:33:01;3.38;;;2.10;;
31716;SDS011;18301;51.076;17.046;2023-07-13T13:38:04;3.58;;;2.08;;
31716;SDS011;18301;51.076;17.046;2023-07-13T13:43:24;4.13;;;2.40;;
31716;SDS011;18301;51.076;17.046;2023-07-13T13:48:34;3.72;;;1.80;;
31716;SDS011;18301;51.076;17.046;2023-07-13T13:53:39;3.65;;;1.88;;
31716;SDS011;18301;51.076;17.046;2023-07-13T13:58:41;2.25;;;1.90;;
31716;SDS011;18301;51.076;17.046;2023-07-13T14:03:43;3.33;;;1.92;;
31716;SDS011;18301;51.076;17.046;2023-07-13T14:08:44;2.65;;;1.70;;
31716;SDS011;18301;51.076;17.046;2023-07-13T14:13:51;2.38;;;1.90;;
31716;SDS011;18301;51.076;17.046;2023-07-13T14:18:56;2.13;;;1.63;;
31716;SDS011;18301;51.076;17.046;2023-07-13T14:24:00;2.95;;;1.70;;
31716;SDS011;18301;51.076;17.046;2023-07-13T14:29:02;2.75;;;1.77;;
31716;SDS011;18301;51.076;17.046;2023-07-13T14:34:07;1.90;;;1.40;;
31716;SDS011;18301;51.076;17.046;2023-07-13T14:39:15;13.38;;;1.77;;
31716;SDS011;18301;51.076;17.046;2023-07-13T14:44:24;2.30;;;1.60;;
31716;SDS011;18301;51.076;17.046;2023-07-13T14:49:32;2.78;;;1.77;;
31716;SDS011;18301;51.076;17.046;2023-07-13T14:54:41;2.15;;;1.30;;
31716;SDS011;18301;51.076;17.046;2023-07-13T14:59:45;3.22;;;1.58;;
31716;SDS011;18301;51.076;17.046;2023-07-13T15:04:47;2.13;;;1.63;;
31716;SDS011;18301;51.076;17.046;2023-07-13T15:09:48;2.47;;;1.50;;
31716;SDS011;18301;51.076;17.046;2023-07-13T15:14:51;4.32;;;1.80;;
31716;SDS011;18301;51.076;17.046;2023-07-13T15:19:53;2.58;;;1.80;;
31716;SDS011;18301;51.076;17.046;2023-07-13T15:24:55;4.13;;;1.70;;
31716;SDS011;18301;51.076;17.046;2023-07-13T15:30:01;2.58;;;1.63;;
31716;SDS011;18301;51.076;17.046;2023-07-13T15:35:02;1.80;;;1.48;;
31716;SDS011;18301;51.076;17.046;2023-07-13T15:40:04;1.80;;;1.70;;
31716;SDS011;18301;51.076;17.046;2023-07-13T15:45:16;1.70;;;1.58;;
31716;SDS011;18301;51.076;17.046;2023-07-13T15:50:24;2.92;;;1.50;;
31716;SDS011;18301;51.076;17.046;2023-07-13T15:55:26;2.90;;;1.73;;
31716;SDS011;18301;51.076;17.046;2023-07-13T16:00:27;4.00;;;1.80;;
31716;SDS011;18301;51.076;17.046;2023-07-13T16:05:29;2.20;;;2.00;;
31716;SDS011;18301;51.076;17.046;2023-07-13T16:10:34;4.90;;;2.05;;
31716;SDS011;18301;51.076;17.046;2023-07-13T16:15:41;4.65;;;2.50;;
31716;SDS011;18301;51.076;17.046;2023-07-13T16:20:46;6.35;;;2.38;;
31716;SDS011;18301;51.076;17.046;2023-07-13T16:25:48;3.13;;;2.47;;
31716;SDS011;18301;51.076;17.046;2023-07-13T16:30:50;3.70;;;2.53;;
31716;SDS011;18301;51.076;17.046;2023-07-13T16:35:52;4.43;;;2.50;;
31716;SDS011;18301;51.076;17.046;2023-07-13T16:40:53;4.32;;;2.90;;
31716;SDS011;18301;51.076;17.046;2023-07-13T16:46:00;4.55;;;2.28;;
31716;SDS011;18301;51.076;17.046;2023-07-13T16:51:04;2.40;;;2.20;;
31716;SDS011;18301;51.076;17.046;2023-07-13T16:56:11;3.03;;;2.40;;
31716;SDS011;18301;51.076;17.046;2023-07-13T17:01:17;5.40;;;2.33;;
31716;SDS011;18301;51.076;17.046;2023-07-13T17:06:20;3.13;;;2.20;;
31716;SDS011;18301;51.076;17.046;2023-07-13T17:11:25;3.25;;;2.50;;
31716;SDS011;18301;51.076;17.046;2023-07-13T17:16:27;4.43;;;2.92;;
31716;SDS011;18301;51.076;17.046;2023-07-13T17:21:32;3.92;;;2.65;;
31716;SDS011;18301;51.076;17.046;2023-07-13T17:26:33;3.65;;;2.80;;
31716;SDS011;18301;51.076;17.046;2023-07-13T17:31:35;4.22;;;2.67;;
31716;SDS011;18301;51.076;17.046;2023-07-13T17:36:38;4.10;;;2.53;;
31716;SDS011;18301;51.076;17.046;2023-07-13T17:41:41;6.75;;;2.40;;
31716;SDS011;18301;51.076;17.046;2023-07-13T17:46:46;3.20;;;2.88;;
31716;SDS011;18301;51.076;17.046;2023-07-13T17:51:49;4.15;;;3.10;;
31716;SDS011;18301;51.076;17.046;2023-07-13T17:56:51;7.65;;;2.83;;
31716;SDS011;18301;51.076;17.046;2023-07-13T18:01:54;2.90;;;2.58;;
31716;SDS011;18301;51.076;17.046;2023-07-13T18:06:56;4.22;;;2.80;;
31716;SDS011;18301;51.076;17.046;2023-07-13T18:11:57;3.97;;;2.53;;
31716;SDS011;18301;51.076;17.046;2023-07-13T18:16:59;4.40;;;3.13;;
31716;SDS011;18301;51.076;17.046;2023-07-13T18:22:14;5.63;;;3.13;;
31716;SDS011;18301;51.076;17.046;2023-07-13T18:27:17;4.55;;;3.22;;
31716;SDS011;18301;51.076;17.046;2023-07-13T18:32:19;4.03;;;2.85;;
31716;SDS011;18301;51.076;17.046;2023-07-13T18:37:22;6.00;;;3.17;;
31716;SDS011;18301;51.076;17.046;2023-07-13T18:42:24;3.53;;;2.78;;
31716;SDS011;18301;51.076;17.046;2023-07-13T18:47:26;3.63;;;2.75;;
31716;SDS011;18301;51.076;17.046;2023-07-13T18:52:33;3.70;;;2.67;;
31716;SDS011;18301;51.076;17.046;2023-07-13T18:57:35;6.35;;;3.40;;
31716;SDS011;18301;51.076;17.046;2023-07-13T19:02:36;4.68;;;2.55;;
31716;SDS011;18301;51.076;17.046;2023-07-13T19:07:38;5.05;;;2.28;;
31716;SDS011;18301;51.076;17.046;2023-07-13T19:12:43;3.00;;;2.08;;
31716;SDS011;18301;51.076;17.046;2023-07-13T19:17:45;4.90;;;2.40;;
31716;SDS011;18301;51.076;17.046;2023-07-13T19:22:47;2.85;;;1.83;;
31716;SDS011;18301;51.076;17.046;2023-07-13T19:27:53;2.60;;;2.38;;
31716;SDS011;18301;51.076;17.046;2023-07-13T19:33:00;2.20;;;2.00;;
31716;SDS011;18301;51.076;17.046;2023-07-13T19:38:02;2.40;;;2.20;;
31716;SDS011;18301;51.076;17.046;2023-07-13T19:43:03;3.83;;;2.28;;
31716;SDS011;18301;51.076;17.046;2023-07-13T19:48:09;3.88;;;3.00;;
31716;SDS011;18301;51.076;17.046;2023-07-13T19:53:14;3.53;;;2.80;;
31716;SDS011;18301;51.076;17.046;2023-07-13T19:58:19;4.60;;;2.80;;
31716;SDS011;18301;51.076;17.046;2023-07-13T20:03:21;2.58;;;2.35;;
31716;SDS011;18301;51.076;17.046;2023-07-13T20:08:22;4.32;;;2.90;;
31716;SDS011;18301;51.076;17.046;2023-07-13T20:13:24;4.55;;;2.55;;
31716;SDS011;18301;51.076;17.046;2023-07-13T20:18:32;2.80;;;2.35;;
31716;SDS011;18301;51.076;17.046;2023-07-13T20:23:34;3.38;;;2.42;;
31716;SDS011;18301;51.076;17.046;2023-07-13T20:28:35;3.22;;;2.35;;
31716;SDS011;18301;51.076;17.046;2023-07-13T20:33:40;4.32;;;2.83;;
31716;SDS011;18301;51.076;17.046;2023-07-13T20:38:42;2.65;;;2.35;;
31716;SDS011;18301;51.076;17.046;2023-07-13T20:43:44;3.78;;;2.42;;
31716;SDS011;18301;51.076;17.046;2023-07-13T20:48:47;4.40;;;2.65;;
31716;SDS011;18301;51.076;17.046;2023-07-13T20:53:51;4.35;;;2.40;;
31716;SDS011;18301;51.076;17.046;2023-07-13T20:58:56;4.18;;;2.55;;
31716;SDS011;18301;51.076;17.046;2023-07-13T21:03:59;2.67;;;2.33;;
31716;SDS011;18301;51.076;17.046;2023-07-13T21:09:05;3.28;;;2.78;;
31716;SDS011;18301;51.076;17.046;2023-07-13T21:14:17;3.15;;;2.80;;
31716;SDS011;18301;51.076;17.046;2023-07-13T21:19:20;3.90;;;2.97;;
31716;SDS011;18301;51.076;17.046;2023-07-13T21:24:22;4.65;;;2.97;;
31716;SDS011;18301;51.076;17.046;2023-07-13T21:29:23;3.10;;;2.80;;
31716;SDS011;18301;51.076;17.046;2023-07-13T21:34:25;4.53;;;2.80;;
31716;SDS011;18301;51.076;17.046;2023-07-13T21:39:26;6.55;;;3.03;;
31716;SDS011;18301;51.076;17.046;2023-07-13T21:44:29;4.68;;;3.10;;
31716;SDS011;18301;51.076;17.046;2023-07-13T21:49:32;5.85;;;3.40;;
31716;SDS011;18301;51.076;17.046;2023-07-13T21:54:33;4.10;;;3.15;;
31716;SDS011;18301;51.076;17.046;2023-07-13T21:59:35;5.45;;;3.22;;
31716;SDS011;18301;51.076;17.046;2023-07-13T22:04:36;5.60;;;3.38;;
31716;SDS011;18301;51.076;17.046;2023-07-13T22:09:38;4.97;;;3.20;;
31716;SDS011;18301;51.076;17.046;2023-07-13T22:14:39;3.63;;;3.28;;
31716;SDS011;18301;51.076;17.046;2023-07-13T22:19:41;5.32;;;3.50;;
31716;SDS011;18301;51.076;17.046;2023-07-13T22:24:43;4.30;;;3.40;;
31716;SDS011;18301;51.076;17.046;2023-07-13T22:29:44;5.00;;;3.70;;
31716;SDS011;18301;51.076;17.046;2023-07-13T22:34:46;5.30;;;4.15;;
31716;SDS011;18301;51.076;17.046;2023-07-13T22:39:47;7.80;;;4.25;;
31716;SDS011;18301;51.076;17.046;2023-07-13T22:44:49;5.57;;;4.22;;
31716;SDS011;18301;51.076;17.046;2023-07-13T22:49:52;7.32;;;4.22;;
31716;SDS011;18301;51.076;17.046;2023-07-13T22:54:54;7.68;;;4.55;;
31716;SDS011;18301;51.076;17.046;2023-07-13T22:59:55;6.20;;;4.30;;
31716;SDS011;18301;51.076;17.046;2023-07-13T23:04:57;5.78;;;4.00;;
31716;SDS011;18301;51.076;17.046;2023-07-13T23:09:58;4.50;;;3.97;;
31716;SDS011;18301;51.076;17.046;2023-07-13T23:15:12;4.95;;;4.07;;
31716;SDS011;18301;51.076;17.046;2023-07-13T23:20:22;5.78;;;4.07;;
31716;SDS011;18301;51.076;17.046;2023-07-13T23:25:29;4.95;;;4.35;;
31716;SDS011;18301;51.076;17.046;2023-07-13T23:30:34;6.22;;;4.30;;
31716;SDS011;18301;51.076;17.046;2023-07-13T23:35:36;6.03;;;3.85;;
31716;SDS011;18301;51.076;17.046;2023-07-13T23:40:38;5.38;;;4.25;;
31716;SDS011;18301;51.076;17.046;2023-07-13T23:45:39;7.22;;;4.30;;
31716;SDS011;18301;51.076;17.046;2023-07-13T23:50:42;6.00;;;4.38;;
31716;SDS011;18301;51.076;17.046;2023-07-13T23:55:44;8.30;;;4.80;;
